createdAt,value
2023-04-29T00:01:18.340Z,60.80
2023-04-29T00:03:47.737Z,60.90
2023-04-29T00:06:16.341Z,61.30
2023-04-29T00:08:44.399Z,61.40
2023-04-29T00:11:12.458Z,61.40
2023-04-29T00:13:41.058Z,61.60
2023-04-29T00:16:10.219Z,61.60
2023-04-29T00:18:38.375Z,62.00
2023-04-29T00:21:07.743Z,61.90
2023-04-29T00:23:36.090Z,62.00
2023-04-29T00:26:04.301Z,61.90
2023-04-29T00:28:32.357Z,62.10
2023-04-29T00:31:00.691Z,62.10
2023-04-29T00:33:28.774Z,62.60
2023-04-29T00:35:57.497Z,62.70
2023-04-29T00:38:26.973Z,62.60
2023-04-29T00:40:55.054Z,62.60
2023-04-29T00:43:23.017Z,62.60
2023-04-29T00:45:51.148Z,62.80
2023-04-29T00:48:19.225Z,62.70
2023-04-29T00:50:47.691Z,63.00
2023-04-29T00:53:15.889Z,62.90
2023-04-29T00:55:45.822Z,63.20
2023-04-29T00:58:13.899Z,63.60
2023-04-29T01:00:44.093Z,63.80
2023-04-29T01:03:12.359Z,64.10
2023-04-29T01:05:40.547Z,64.40
2023-04-29T01:08:27.478Z,64.80
2023-04-29T01:11:09.072Z,65.10
2023-04-29T01:13:44.014Z,65.00
2023-04-29T01:16:19.762Z,65.70
2023-04-29T01:18:55.610Z,64.80
2023-04-29T01:21:23.873Z,65.10
2023-04-29T01:23:56.288Z,64.80
2023-04-29T01:26:24.653Z,64.50
2023-04-29T01:28:59.447Z,64.20
2023-04-29T01:31:33.717Z,64.10
2023-04-29T01:34:09.783Z,64.20
2023-04-29T01:36:48.314Z,64.40
2023-04-29T01:39:26.132Z,65.00
2023-04-29T01:42:04.707Z,65.40
2023-04-29T01:44:35.066Z,65.80
2023-04-29T01:47:03.977Z,65.40
2023-04-29T01:49:36.383Z,65.30
2023-04-29T01:52:05.258Z,65.20
2023-04-29T01:54:36.897Z,65.00
2023-04-29T01:57:05.280Z,65.30
2023-04-29T01:59:33.252Z,65.60
2023-04-29T02:02:01.233Z,65.80
2023-04-29T02:04:29.529Z,66.10
2023-04-29T02:06:57.537Z,65.90
2023-04-29T02:09:25.606Z,65.60
2023-04-29T02:11:54.949Z,65.90
2023-04-29T02:14:22.954Z,66.10
2023-04-29T02:16:51.023Z,66.40
2023-04-29T02:19:19.023Z,66.40
2023-04-29T02:21:47.117Z,66.20
2023-04-29T02:24:15.097Z,66.30
2023-04-29T02:26:43.071Z,66.30
2023-04-29T02:29:12.471Z,66.50
2023-04-29T02:31:40.489Z,66.70
2023-04-29T02:34:08.464Z,66.50
2023-04-29T02:36:36.540Z,67.00
2023-04-29T02:39:05.349Z,66.80
2023-04-29T02:41:33.402Z,66.90
2023-04-29T02:44:01.372Z,67.00
2023-04-29T02:46:32.841Z,66.70
2023-04-29T02:49:01.093Z,66.60
2023-04-29T02:51:29.125Z,67.10
2023-04-29T02:53:57.092Z,67.20
2023-04-29T02:56:25.069Z,67.30
2023-04-29T02:58:53.027Z,67.40
2023-04-29T03:01:21.560Z,67.30
2023-04-29T03:03:51.122Z,67.20
2023-04-29T03:06:19.298Z,67.30
2023-04-29T03:08:47.208Z,67.70
2023-04-29T03:11:15.181Z,68.20
2023-04-29T03:13:43.209Z,68.30
2023-04-29T03:16:11.212Z,68.50
2023-04-29T03:18:39.239Z,69.00
2023-04-29T03:21:08.600Z,69.10
2023-04-29T03:23:36.571Z,69.50
2023-04-29T03:26:04.608Z,69.10
2023-04-29T03:28:32.600Z,69.60
2023-04-29T03:31:01.029Z,70.50
2023-04-29T03:33:29.018Z,70.50
2023-04-29T03:35:57.176Z,71.30
2023-04-29T03:38:26.953Z,71.10
2023-04-29T03:40:54.969Z,71.40
2023-04-29T03:43:22.944Z,71.20
2023-04-29T03:45:51.218Z,71.30
2023-04-29T03:48:20.095Z,71.60
2023-04-29T03:50:48.598Z,71.60
2023-04-29T03:53:16.727Z,72.00
2023-04-29T03:55:46.386Z,72.50
2023-04-29T03:58:14.614Z,73.00
2023-04-29T04:00:42.599Z,73.40
2023-04-29T04:03:10.865Z,74.00
2023-04-29T04:05:38.908Z,74.20
2023-04-29T04:08:07.199Z,74.20
2023-04-29T04:10:35.162Z,74.20
2023-04-29T04:13:04.552Z,74.70
2023-04-29T04:15:32.501Z,74.80
2023-04-29T04:18:00.456Z,74.70
2023-04-29T04:20:28.486Z,75.30
2023-04-29T04:22:56.430Z,75.00
2023-04-29T04:25:24.377Z,74.80
2023-04-29T04:27:52.382Z,74.60
2023-04-29T04:30:21.790Z,75.00
2023-04-29T04:32:49.819Z,75.00
2023-04-29T04:35:18.062Z,74.90
2023-04-29T04:37:46.408Z,75.60
2023-04-29T04:40:14.956Z,75.30
2023-04-29T04:42:42.931Z,75.70
2023-04-29T04:45:11.922Z,75.80
2023-04-29T04:47:42.015Z,76.10
2023-04-29T04:50:10.682Z,76.90
2023-04-29T04:52:38.648Z,76.80
2023-04-29T04:55:07.286Z,77.00
2023-04-29T04:57:35.250Z,77.10
2023-04-29T05:00:04.277Z,77.30
2023-04-29T05:02:32.680Z,76.60
2023-04-29T05:05:02.136Z,76.30
2023-04-29T05:07:30.183Z,76.40
2023-04-29T05:09:58.738Z,76.60
2023-04-29T05:12:30.704Z,76.70
2023-04-29T05:14:59.041Z,77.10
2023-04-29T05:17:27.044Z,77.20
2023-04-29T05:19:55.039Z,77.40
2023-04-29T05:22:24.455Z,78.20
2023-04-29T05:24:54.325Z,78.50
2023-04-29T05:27:22.296Z,79.70
2023-04-29T05:29:50.369Z,79.30
2023-04-29T05:32:18.473Z,80.10
2023-04-29T05:34:46.563Z,80.30
2023-04-29T05:37:14.713Z,80.50
2023-04-29T05:39:44.039Z,80.80
2023-04-29T05:42:11.989Z,81.00
2023-04-29T05:44:40.874Z,81.00
2023-04-29T05:47:08.872Z,81.60
2023-04-29T05:49:36.865Z,82.20
2023-04-29T05:52:06.619Z,82.70
2023-04-29T05:54:35.279Z,82.90
2023-04-29T05:57:05.495Z,82.60
2023-04-29T05:59:34.179Z,83.20
2023-04-29T06:02:03.017Z,83.30
2023-04-29T06:04:31.369Z,83.80
2023-04-29T06:06:59.584Z,84.20
2023-04-29T06:09:28.390Z,84.40
2023-04-29T06:11:57.954Z,84.20
2023-04-29T06:14:27.457Z,84.50
2023-04-29T06:16:56.024Z,84.90
2023-04-29T06:19:24.980Z,85.40
2023-04-29T06:21:52.996Z,86.90
2023-04-29T06:24:20.982Z,86.80
2023-04-29T06:26:48.960Z,87.70
2023-04-29T06:29:17.071Z,87.50
2023-04-29T06:31:46.528Z,88.20
2023-04-29T06:34:14.554Z,88.50
2023-04-29T06:36:42.497Z,88.90
2023-04-29T06:39:10.569Z,89.20
2023-04-29T06:41:38.572Z,89.80
2023-04-29T06:44:06.715Z,90.10
2023-04-29T06:46:34.732Z,90.00
2023-04-29T06:49:04.093Z,90.10
2023-04-29T06:51:32.260Z,90.60
2023-04-29T06:54:00.216Z,90.20
2023-04-29T06:56:28.201Z,90.70
2023-04-29T06:58:56.181Z,90.30
2023-04-29T07:01:24.231Z,90.90
2023-04-29T07:03:52.506Z,91.10
2023-04-29T07:06:21.987Z,90.90
2023-04-29T07:08:50.281Z,91.20
2023-04-29T07:11:18.254Z,91.80
2023-04-29T07:13:46.292Z,92.50
2023-04-29T07:16:18.357Z,93.30
2023-04-29T07:18:46.465Z,94.20
2023-04-29T07:21:14.468Z,94.70
2023-04-29T07:23:43.965Z,94.20
2023-04-29T07:26:13.229Z,94.40
2023-04-29T07:28:41.357Z,95.10
2023-04-29T07:31:09.589Z,95.20
2023-04-29T07:33:37.720Z,95.80
2023-04-29T07:36:07.376Z,96.40
2023-04-29T07:38:36.946Z,97.20
2023-04-29T07:41:06.485Z,97.40
2023-04-29T07:43:34.491Z,97.60
2023-04-29T07:46:02.507Z,97.20
2023-04-29T07:48:30.647Z,97.10
2023-04-29T07:50:58.609Z,97.30
2023-04-29T07:53:26.645Z,96.40
2023-04-29T07:55:54.603Z,96.00
2023-04-29T07:58:23.997Z,96.80
2023-04-29T08:00:52.122Z,97.70
2023-04-29T08:03:20.570Z,99.30
2023-04-29T08:05:48.870Z,99.90
2023-04-29T08:08:16.938Z,99.70
2023-04-29T08:10:44.977Z,99.80
2023-04-29T08:13:13.010Z,99.70
2023-04-29T08:15:42.423Z,98.20
2023-04-29T08:18:10.877Z,97.80
2023-04-29T08:20:38.817Z,95.50
2023-04-29T08:23:06.816Z,90.90
2023-04-29T08:25:34.848Z,85.50
2023-04-29T08:28:03.086Z,81.80
2023-04-29T08:30:31.167Z,80.70
2023-04-29T08:33:00.554Z,77.00
2023-04-29T08:35:28.614Z,76.10
2023-04-29T08:37:56.603Z,76.50
2023-04-29T08:40:24.747Z,78.60
2023-04-29T08:42:54.394Z,75.90
2023-04-29T08:45:26.019Z,71.30
2023-04-29T08:47:55.165Z,64.20
2023-04-29T08:50:25.869Z,65.00
2023-04-29T08:52:53.841Z,64.60
2023-04-29T08:55:21.925Z,67.40
2023-04-29T08:57:51.299Z,67.60
2023-04-29T09:00:20.615Z,65.40
2023-04-29T09:02:51.650Z,64.50
2023-04-29T09:05:20.036Z,61.60
2023-04-29T09:07:51.206Z,53.60
2023-04-29T09:10:20.033Z,46.80
2023-04-29T09:12:48.033Z,41.20
2023-04-29T09:15:16.269Z,40.20
2023-04-29T09:17:46.216Z,41.30
2023-04-29T09:20:31.028Z,43.20
2023-04-29T09:23:02.657Z,46.80
2023-04-29T09:25:31.539Z,49.30
2023-04-29T09:27:59.747Z,51.30
2023-04-29T09:30:28.031Z,52.30
2023-04-29T09:33:07.595Z,52.30
2023-04-29T09:35:36.350Z,48.60
2023-04-29T09:38:13.411Z,49.40
2023-04-29T09:40:57.598Z,51.50
2023-04-29T09:43:27.357Z,55.20
2023-04-29T09:45:55.652Z,57.80
2023-04-29T09:48:23.657Z,59.70
2023-04-29T09:51:02.686Z,61.00
2023-04-29T09:53:32.693Z,61.90
2023-04-29T09:56:02.404Z,62.70
2023-04-29T09:58:34.330Z,64.00
2023-04-29T10:01:03.588Z,65.60
2023-04-29T10:03:35.072Z,66.70
2023-04-29T10:06:05.093Z,67.40
2023-04-29T10:08:35.433Z,69.00
2023-04-29T10:11:06.040Z,70.10
2023-04-29T10:13:38.455Z,70.80
2023-04-29T10:16:27.266Z,71.10
2023-04-29T10:18:57.119Z,70.80
2023-04-29T10:21:29.781Z,71.20
2023-04-29T10:24:01.008Z,71.90
2023-04-29T10:26:32.047Z,71.90
2023-04-29T10:29:01.505Z,72.00
2023-04-29T10:31:30.182Z,72.40
2023-04-29T10:33:59.121Z,72.80
2023-04-29T10:36:28.653Z,73.80
2023-04-29T10:39:01.169Z,72.90
2023-04-29T10:41:35.683Z,73.20
2023-04-29T10:44:04.563Z,73.40
2023-04-29T10:46:32.759Z,73.50
2023-04-29T10:49:03.826Z,73.60
2023-04-29T10:51:33.688Z,74.10
2023-04-29T10:54:07.411Z,74.50
2023-04-29T10:56:43.676Z,74.50
2023-04-29T10:59:14.483Z,74.60
2023-04-29T11:01:44.775Z,74.40
2023-04-29T11:04:13.171Z,74.50
2023-04-29T11:06:43.590Z,74.60
2023-04-29T11:09:15.375Z,75.10
2023-04-29T11:12:01.608Z,75.40
2023-04-29T11:14:32.740Z,75.50
2023-04-29T11:17:03.068Z,75.60
2023-04-29T11:19:35.443Z,75.90
2023-04-29T11:22:12.229Z,75.90
2023-04-29T11:24:52.767Z,75.70
2023-04-29T11:27:25.288Z,76.00
2023-04-29T11:29:58.132Z,76.00
2023-04-29T11:32:27.017Z,76.10
2023-04-29T11:34:55.682Z,75.80
2023-04-29T11:37:25.922Z,75.40
2023-04-29T11:40:00.990Z,75.10
2023-04-29T11:42:29.539Z,74.80
2023-04-29T11:44:59.499Z,74.90
2023-04-29T11:47:29.776Z,75.00
2023-04-29T11:50:05.588Z,76.30
2023-04-29T11:52:34.024Z,77.50
2023-04-29T11:55:03.845Z,77.80
2023-04-29T11:57:32.229Z,78.30
2023-04-29T12:00:00.391Z,79.10
2023-04-29T12:02:31.883Z,78.30
2023-04-29T12:05:01.490Z,78.50
2023-04-29T12:07:30.372Z,78.50
2023-04-29T12:09:58.463Z,78.20
2023-04-29T12:12:29.228Z,77.80
2023-04-29T12:14:57.427Z,78.10
2023-04-29T12:17:26.074Z,78.50
2023-04-29T12:19:54.167Z,78.30
2023-04-29T12:22:22.215Z,79.50
2023-04-29T12:24:50.959Z,79.80
2023-04-29T12:27:19.388Z,80.00
2023-04-29T12:29:48.809Z,79.80
2023-04-29T12:32:19.221Z,78.90
2023-04-29T12:34:47.447Z,78.20
2023-04-29T12:37:16.812Z,77.30
2023-04-29T12:39:44.984Z,77.00
2023-04-29T12:42:17.106Z,75.40
2023-04-29T12:44:48.327Z,75.40
2023-04-29T12:47:17.640Z,75.60
2023-04-29T12:49:50.123Z,75.90
2023-04-29T12:52:18.089Z,76.40
2023-04-29T12:54:46.093Z,75.00
2023-04-29T12:57:14.468Z,73.70
2023-04-29T12:59:42.581Z,73.10
2023-04-29T13:02:12.467Z,72.30
2023-04-29T13:04:40.969Z,71.40
2023-04-29T13:07:09.714Z,71.30
2023-04-29T13:09:38.230Z,71.20
2023-04-29T13:12:09.528Z,71.20
2023-04-29T13:14:37.810Z,70.60
2023-04-29T13:17:06.359Z,71.30
2023-04-29T13:19:50.165Z,72.30
2023-04-29T13:22:19.099Z,72.70
2023-04-29T13:24:47.554Z,73.30
2023-04-29T13:27:15.618Z,73.90
2023-04-29T13:29:43.751Z,74.50
2023-04-29T13:32:11.914Z,75.10
2023-04-29T13:34:43.448Z,76.00
2023-04-29T13:37:11.871Z,76.40
2023-04-29T13:39:39.936Z,76.90
2023-04-29T13:42:08.999Z,77.30
2023-04-29T13:44:51.090Z,78.50
2023-04-29T13:47:25.505Z,79.20
2023-04-29T13:53:10.501Z,78.40
2023-04-29T13:56:11.485Z,78.20
2023-04-29T14:03:05.592Z,74.50
2023-04-29T14:05:35.215Z,74.50
2023-04-29T14:08:03.465Z,74.30
2023-04-29T14:10:31.540Z,74.50
2023-04-29T14:12:59.532Z,73.50
2023-04-29T14:15:27.539Z,75.20
2023-04-29T14:17:55.712Z,75.60
2023-04-29T14:20:23.779Z,76.10
2023-04-29T14:22:53.159Z,76.40
2023-04-29T14:25:21.133Z,76.20
2023-04-29T14:27:49.582Z,76.70
2023-04-29T14:30:17.941Z,77.40
2023-04-29T14:32:46.434Z,77.80
2023-04-29T14:35:15.172Z,78.20
2023-04-29T14:37:43.205Z,78.30
2023-04-29T14:40:13.035Z,78.80
2023-04-29T14:42:41.201Z,79.00
2023-04-29T14:45:10.325Z,79.60
2023-04-29T14:47:38.885Z,80.10
2023-04-29T14:50:08.302Z,80.70
2023-04-29T14:52:36.244Z,82.00
2023-04-29T14:55:04.670Z,83.90
2023-04-29T14:57:34.026Z,85.50
2023-04-29T15:00:02.092Z,88.30
2023-04-29T15:02:30.052Z,90.10
2023-04-29T15:04:58.547Z,91.40
2023-04-29T15:07:26.528Z,94.00
2023-04-29T15:09:55.936Z,94.00
2023-04-29T15:12:24.003Z,94.00
2023-04-29T15:14:53.647Z,92.90
2023-04-29T15:17:21.984Z,92.20
2023-04-29T15:19:50.012Z,92.10
2023-04-29T15:22:18.178Z,90.80
2023-04-29T15:27:16.124Z,88.10
2023-04-29T15:29:44.097Z,86.50
2023-04-29T15:32:13.721Z,84.40
2023-04-29T15:34:42.027Z,83.40
2023-04-29T15:37:09.960Z,82.50
2023-04-29T15:39:37.935Z,82.70
2023-04-29T15:42:06.050Z,83.70
2023-04-29T15:44:34.211Z,84.20
2023-04-29T15:47:02.255Z,85.70
2023-04-29T15:49:31.724Z,86.80
2023-04-29T15:51:59.689Z,88.80
2023-04-29T15:54:27.737Z,89.10
2023-04-29T15:56:56.830Z,89.70
2023-04-29T15:59:24.861Z,89.90
2023-04-29T16:01:53.327Z,90.10
2023-04-29T16:04:21.278Z,90.20
2023-04-29T16:06:51.187Z,90.00
2023-04-29T16:09:19.164Z,90.00
2023-04-29T16:11:47.297Z,89.80
2023-04-29T16:14:15.348Z,90.50
2023-04-29T16:16:43.422Z,91.70
2023-04-29T16:19:11.469Z,95.70
2023-04-29T16:21:39.941Z,99.90
2023-04-29T16:24:09.259Z,99.90
2023-04-29T16:26:38.593Z,99.90
2023-04-29T16:29:06.692Z,99.90
2023-04-29T16:31:34.771Z,99.90
2023-04-29T16:34:03.306Z,99.90
2023-04-29T16:36:32.670Z,99.90
2023-04-29T16:39:00.684Z,99.90
2023-04-29T16:41:30.109Z,99.90
2023-04-29T16:43:58.537Z,99.90
2023-04-29T16:46:26.789Z,99.90
2023-04-29T16:48:56.799Z,99.90
2023-04-29T16:51:26.310Z,99.90
2023-04-29T16:53:54.691Z,99.90
2023-04-29T16:56:22.784Z,99.90
2023-04-29T16:58:53.266Z,99.90
2023-04-29T17:01:21.492Z,99.90
2023-04-29T17:03:50.122Z,99.90
2023-04-29T17:06:18.385Z,99.90
2023-04-29T17:08:47.501Z,99.90
2023-04-29T17:11:18.270Z,99.90
2023-04-29T17:13:46.415Z,99.90
2023-04-29T17:16:15.782Z,99.90
2023-04-29T17:18:43.813Z,99.90
2023-04-29T17:21:11.800Z,99.90
2023-04-29T17:23:39.770Z,99.90
2023-04-29T17:26:08.155Z,99.90
2023-04-29T17:28:36.700Z,99.90
2023-04-29T17:31:06.195Z,99.90
2023-04-29T17:33:35.736Z,99.90
2023-04-29T17:36:04.715Z,99.90
2023-04-29T17:38:33.752Z,99.90
2023-04-29T17:41:02.232Z,99.90
2023-04-29T17:43:33.189Z,99.90
2023-04-29T17:46:01.241Z,99.90
2023-04-29T17:48:29.220Z,99.90
2023-04-29T17:50:58.572Z,99.90
2023-04-29T17:53:28.597Z,99.90
2023-04-29T17:55:56.860Z,99.90
2023-04-29T17:58:24.836Z,99.90
2023-04-29T18:00:53.036Z,99.90
2023-04-29T18:03:21.249Z,99.90
2023-04-29T18:05:49.289Z,99.90
2023-04-29T18:08:18.649Z,99.90
2023-04-29T18:10:46.677Z,99.90
2023-04-29T18:13:14.686Z,99.90
2023-04-29T18:15:42.883Z,99.90
2023-04-29T18:18:10.849Z,99.90
2023-04-29T18:20:40.472Z,99.90
2023-04-29T18:23:08.504Z,99.90
2023-04-29T18:25:39.317Z,99.90
2023-04-29T18:30:41.572Z,99.90
2023-04-29T18:33:09.567Z,99.90
2023-04-29T18:35:37.914Z,99.90
2023-04-29T18:38:06.090Z,99.90
2023-04-29T18:40:36.173Z,99.90
2023-04-29T18:43:05.527Z,99.90
2023-04-29T18:45:33.523Z,99.90
2023-04-29T18:48:05.543Z,99.90
2023-04-29T18:50:33.829Z,99.90
2023-04-29T18:53:02.034Z,99.90
2023-04-29T18:55:30.617Z,99.90
2023-04-29T18:57:58.671Z,99.90
2023-04-29T19:00:28.095Z,99.90
2023-04-29T19:02:56.496Z,99.90
2023-04-29T19:05:24.791Z,99.90
2023-04-29T19:07:52.804Z,99.90
2023-04-29T19:10:20.951Z,99.90
2023-04-29T19:12:48.955Z,99.90
2023-04-29T19:15:17.714Z,99.90
2023-04-29T19:17:47.056Z,99.90
2023-04-29T19:20:15.239Z,99.90
2023-04-29T19:22:43.237Z,99.90
2023-04-29T19:25:11.388Z,99.90
2023-04-29T19:27:40.728Z,99.90
2023-04-29T19:30:10.121Z,99.90
2023-04-29T19:32:38.190Z,99.90
2023-04-29T19:35:08.422Z,99.90
2023-04-29T19:37:36.454Z,99.90
2023-04-29T19:40:04.757Z,99.90
2023-04-29T19:42:32.841Z,99.90
2023-04-29T19:45:00.858Z,99.90
2023-04-29T19:47:28.818Z,99.90
2023-04-29T19:49:56.982Z,99.90
2023-04-29T19:52:26.811Z,99.90
2023-04-29T19:54:54.790Z,99.90
2023-04-29T19:57:22.794Z,99.90
2023-04-29T19:59:50.770Z,99.90
2023-04-29T20:02:19.206Z,99.90
2023-04-29T20:04:48.256Z,99.90
2023-04-29T20:07:16.280Z,99.90
2023-04-29T20:09:45.886Z,99.90
2023-04-29T20:12:13.899Z,99.90
2023-04-29T20:14:41.911Z,99.90
2023-04-29T20:17:09.956Z,99.90
2023-04-29T20:19:37.961Z,99.90
2023-04-29T20:22:06.008Z,99.90
2023-04-29T20:24:33.988Z,99.90
2023-04-29T20:27:04.454Z,99.90
2023-04-29T20:29:32.644Z,99.90
2023-04-29T20:32:00.760Z,99.90
2023-04-29T20:34:28.823Z,99.90
2023-04-29T20:36:56.808Z,99.90
2023-04-29T20:39:25.977Z,99.90
2023-04-29T20:41:56.209Z,99.90
2023-04-29T20:44:25.643Z,99.90
2023-04-29T20:46:54.226Z,99.90
2023-04-29T20:49:22.376Z,99.90
2023-04-29T20:51:50.348Z,99.90
2023-04-29T20:54:18.272Z,99.90
2023-04-29T20:56:46.327Z,99.90
2023-04-29T20:59:14.340Z,99.90
2023-04-29T21:01:45.490Z,99.90
2023-04-29T21:04:13.575Z,99.90
2023-04-29T21:06:41.659Z,99.90
2023-04-29T21:09:10.253Z,99.90
2023-04-29T21:11:38.394Z,99.90
2023-04-29T21:14:06.388Z,99.90
2023-04-29T21:16:34.379Z,99.90
2023-04-29T21:19:03.734Z,99.90
2023-04-29T21:21:31.825Z,99.90
2023-04-29T21:23:59.801Z,99.90
2023-04-29T21:26:27.813Z,99.90
2023-04-29T21:28:55.822Z,99.90
2023-04-29T21:31:23.866Z,99.90
2023-04-29T21:33:51.916Z,99.90
2023-04-29T21:36:21.713Z,99.90
2023-04-29T21:38:49.830Z,99.90
2023-04-29T21:41:22.703Z,99.90
2023-04-29T21:43:51.671Z,99.90
2023-04-29T21:46:20.748Z,99.90
2023-04-29T21:48:48.992Z,99.90
2023-04-29T21:51:18.924Z,99.90
2023-04-29T21:53:48.351Z,99.90
2023-04-29T21:56:16.448Z,99.90
2023-04-29T21:58:44.872Z,99.90
2023-04-29T22:01:26.604Z,99.90
2023-04-29T22:03:54.715Z,99.90
2023-04-29T22:06:22.876Z,99.90
2023-04-29T22:08:52.327Z,99.90
2023-04-29T22:11:21.539Z,99.90
2023-04-29T22:13:49.647Z,99.90
2023-04-29T22:16:18.739Z,99.90
2023-04-29T22:18:46.763Z,99.90
2023-04-29T22:21:14.787Z,99.90
2023-04-29T22:23:43.646Z,99.90
2023-04-29T22:26:12.973Z,99.90
2023-04-29T22:28:40.967Z,99.90
2023-04-29T22:31:08.955Z,99.90
2023-04-29T22:33:37.145Z,99.90
2023-04-29T22:36:05.432Z,99.90
2023-04-29T22:38:34.974Z,99.90
2023-04-29T22:41:02.986Z,99.90
2023-04-29T22:43:32.316Z,99.90
2023-04-29T22:46:00.366Z,99.90
2023-04-29T22:48:28.657Z,99.90
2023-04-29T22:50:59.320Z,99.90
2023-04-29T22:53:27.499Z,99.90
2023-04-29T22:55:57.041Z,99.90
2023-04-29T22:58:26.422Z,99.90
2023-04-29T23:00:57.224Z,99.90
2023-04-29T23:03:25.620Z,99.90
2023-04-29T23:05:58.198Z,99.90
2023-04-29T23:08:26.312Z,99.90
2023-04-29T23:10:54.391Z,99.90
2023-04-29T23:13:22.398Z,99.90
2023-04-29T23:15:50.708Z,99.90
2023-04-29T23:18:20.042Z,99.90
2023-04-29T23:20:48.360Z,99.90
2023-04-29T23:23:16.411Z,99.90
2023-04-29T23:25:45.281Z,99.90
2023-04-29T23:28:14.080Z,99.90
2023-04-29T23:30:42.247Z,99.90
2023-04-29T23:33:10.291Z,99.90
2023-04-29T23:35:39.598Z,99.90
2023-04-29T23:38:07.687Z,99.90
2023-04-29T23:40:35.662Z,99.90
2023-04-29T23:43:03.813Z,99.90
2023-04-29T23:45:31.814Z,99.90
2023-04-29T23:47:59.878Z,99.90
2023-04-29T23:50:28.183Z,99.90
2023-04-29T23:52:57.592Z,99.90
2023-04-29T23:55:25.583Z,99.90
2023-04-29T23:57:53.621Z,99.90
